Time;durP1;ratioP1;P1;durP2;ratioP2;P2;SDS_P1;SDS_P2;PMS_P1;PMS_P2;Temp;Humidity;BMP_temperature;BMP_pressure;BME280_temperature;BME280_humidity;BME280_pressure;Samples;Min_cycle;Max_cycle;Signal;HPM_P1;HPM_P2
2021/03/16 00:01:54;;;;;;;3.00;1.90;;;18.70;33.90;;;;;;8395550;28;20037;-57
2021/03/16 00:05:54;;;;;;;2.63;1.40;;;18.70;33.80;;;;;;8419088;28;20071;-57
2021/03/16 00:09:55;;;;;;;1.40;1.30;;;18.70;33.90;;;;;;8408662;28;20469;-56
2021/03/16 00:13:55;;;;;;;2.07;1.20;;;18.70;33.90;;;;;;8390775;28;20059;-57
2021/03/16 00:17:56;;;;;;;2.27;1.40;;;18.60;33.90;;;;;;8396933;28;20025;-57
2021/03/16 00:21:56;;;;;;;1.97;1.10;;;18.60;33.80;;;;;;8392514;28;20036;-56
2021/03/16 00:25:57;;;;;;;2.87;1.63;;;18.60;33.80;;;;;;8390626;28;20036;-57
2021/03/16 00:29:57;;;;;;;1.40;1.30;;;18.60;33.80;;;;;;8391813;28;20032;-57
2021/03/16 00:33:58;;;;;;;1.53;1.23;;;18.50;33.80;;;;;;8392760;28;20386;-57
2021/03/16 00:37:58;;;;;;;1.53;1.20;;;18.50;33.70;;;;;;8393486;28;20036;-57
2021/03/16 00:41:59;;;;;;;2.13;1.30;;;18.50;33.70;;;;;;8391530;28;20040;-57
2021/03/16 00:46:00;;;;;;;2.93;1.33;;;18.50;33.70;;;;;;8392062;28;20040;-57
2021/03/16 00:50:05;;;;;;;3.03;1.58;;;18.50;33.70;;;;;;8389836;28;20032;-56
2021/03/16 00:54:06;;;;;;;1.95;1.30;;;18.50;33.70;;;;;;8395547;28;20045;-56
2021/03/16 00:58:06;;;;;;;2.20;1.27;;;18.40;33.70;;;;;;8391258;28;20036;-56
2021/03/16 01:02:08;;;;;;;2.10;1.10;;;18.40;33.60;;;;;;8390003;28;20032;-56
2021/03/16 01:06:09;;;;;;;2.63;1.30;;;18.40;33.60;;;;;;8391496;28;20474;-56
2021/03/16 01:10:15;;;;;;;2.57;1.30;;;18.40;33.60;;;;;;8395204;28;20047;-57
2021/03/16 01:14:15;;;;;;;1.65;1.40;;;18.40;33.60;;;;;;8389575;28;20045;-57
2021/03/16 01:18:16;;;;;;;1.30;1.10;;;18.30;33.60;;;;;;8390927;28;20405;-56
2021/03/16 01:22:16;;;;;;;1.63;1.13;;;18.30;33.60;;;;;;8391044;28;20036;-57
2021/03/16 01:26:17;;;;;;;1.33;1.20;;;18.30;33.60;;;;;;8389157;28;20043;-56
2021/03/16 01:30:18;;;;;;;3.17;1.17;;;18.30;33.50;;;;;;8395125;28;20025;-57
2021/03/16 01:34:19;;;;;;;1.55;0.98;;;18.30;33.60;;;;;;8390488;28;20049;-56
2021/03/16 01:38:19;;;;;;;3.27;1.60;;;18.30;33.50;;;;;;8388901;28;20037;-56
2021/03/16 01:42:20;;;;;;;4.77;1.33;;;18.20;33.50;;;;;;8390478;28;20032;-56
2021/03/16 01:46:20;;;;;;;3.83;1.27;;;18.20;33.50;;;;;;8395055;28;20063;-56
2021/03/16 01:50:21;;;;;;;1.40;1.10;;;18.20;33.50;;;;;;8388755;28;20043;-57
2021/03/16 01:54:22;;;;;;;1.45;1.30;;;18.20;33.50;;;;;;8390240;28;20040;-57
2021/03/16 01:58:23;;;;;;;1.30;1.20;;;18.20;33.50;;;;;;8390095;28;20029;-56
2021/03/16 02:02:24;;;;;;;1.93;1.17;;;18.20;33.50;;;;;;8389519;28;20105;-55
2021/03/16 02:06:50;;;;;;;2.70;1.30;;;18.10;33.40;;;;;;8394743;28;20416;-57
2021/03/16 02:11:05;;;;;;;1.10;1.00;;;18.10;33.50;;;;;;8388475;28;20044;-56
2021/03/16 02:15:20;;;;;;;1.33;0.90;;;18.10;33.50;;;;;;8389638;28;20048;-55
2021/03/16 02:19:47;;;;;;;2.85;1.02;;;18.10;33.40;;;;;;8390035;28;20436;-56
2021/03/16 02:23:57;;;;;;;1.92;1.02;;;18.10;33.50;;;;;;8399662;28;20060;-56
2021/03/16 02:28:36;;;;;;;1.55;0.95;;;18.10;33.50;;;;;;8433942;28;20404;-56
2021/03/16 02:32:38;;;;;;;2.30;1.17;;;18.10;33.50;;;;;;8365224;28;20088;-57
2021/03/16 02:36:41;;;;;;;2.05;1.40;;;18.10;33.40;;;;;;8388483;28;20067;-56
2021/03/16 02:40:43;;;;;;;2.88;1.10;;;18.00;33.40;;;;;;8411211;28;20038;-57
2021/03/16 02:44:44;;;;;;;0.98;0.82;;;18.00;33.40;;;;;;8420026;28;20071;-56
2021/03/16 02:48:47;;;;;;;2.78;1.23;;;18.00;33.40;;;;;;8399651;28;20036;-56
2021/03/16 02:52:48;;;;;;;1.25;1.00;;;18.00;33.40;;;;;;8393381;28;20463;-57
2021/03/16 02:56:50;;;;;;;1.25;1.13;;;18.00;33.40;;;;;;8414986;28;20127;-57
2021/03/16 03:00:52;;;;;;;1.60;1.20;;;18.00;33.40;;;;;;8416779;28;20032;-56
2021/03/16 03:04:53;;;;;;;1.38;1.17;;;18.00;33.40;;;;;;8392844;28;20041;-56
2021/03/16 03:08:54;;;;;;;1.60;1.17;;;18.00;33.40;;;;;;8399280;28;20047;-57
2021/03/16 03:12:54;;;;;;;2.55;1.00;;;17.90;33.30;;;;;;8394693;28;20050;-56
2021/03/16 03:16:57;;;;;;;2.03;1.07;;;18.00;33.40;;;;;;8392625;28;20041;-56
2021/03/16 03:21:04;;;;;;;1.60;1.05;;;17.90;33.30;;;;;;8394631;28;20071;-56
2021/03/16 03:25:10;;;;;;;1.35;1.10;;;17.90;33.40;;;;;;8398611;28;20449;-56
2021/03/16 03:29:12;;;;;;;1.33;0.98;;;17.90;33.40;;;;;;8392264;28;20031;-57
2021/03/16 03:33:13;;;;;;;;;;;17.90;33.40;;;;;;8393880;28;20056;-56
2021/03/16 03:37:15;;;;;;;1.05;0.90;;;17.90;33.40;;;;;;8393608;28;19912;-56
2021/03/16 03:41:17;;;;;;;1.00;0.90;;;17.90;33.40;;;;;;8392467;28;20039;-56
2021/03/16 03:45:18;;;;;;;1.83;1.02;;;17.90;33.30;;;;;;8431681;28;20025;-56
2021/03/16 03:49:20;;;;;;;1.95;1.27;;;17.90;33.90;;;;;;8401480;28;20068;-56
2021/03/16 03:53:21;;;;;;;1.25;1.15;;;17.80;33.30;;;;;;8391563;28;20115;-56
2021/03/16 03:57:22;;;;;;;2.10;1.23;;;17.80;33.30;;;;;;8392918;28;20115;-56
2021/03/16 04:01:24;;;;;;;1.27;1.13;;;17.80;33.30;;;;;;8397511;28;20477;-57
2021/03/16 04:05:24;;;;;;;1.73;1.10;;;17.80;33.40;;;;;;8391049;28;20063;-56
2021/03/16 04:09:25;;;;;;;1.30;0.90;;;17.80;33.30;;;;;;8410898;28;20107;-56
2021/03/16 04:13:27;;;;;;;1.13;0.90;;;17.80;33.40;;;;;;8416457;28;20566;-56
2021/03/16 04:17:27;;;;;;;;;;;17.80;33.40;;;;;;8395458;28;20039;-56
2021/03/16 04:21:28;;;;;;;1.00;0.90;;;17.80;33.40;;;;;;8424282;28;19912;-56
2021/03/16 04:25:28;;;;;;;1.97;0.90;;;17.80;33.40;;;;;;8402166;28;20039;-57
2021/03/16 04:29:29;;;;;;;1.87;0.97;;;17.90;33.40;;;;;;8390417;28;20043;-55
2021/03/16 04:33:29;;;;;;;1.23;0.90;;;17.90;33.30;;;;;;8393997;28;20532;-55
2021/03/16 04:37:30;;;;;;;0.80;0.80;;;17.90;33.30;;;;;;8429678;28;20043;-57
2021/03/16 04:41:31;;;;;;;1.17;1.07;;;18.00;33.30;;;;;;8397275;28;20064;-56
2021/03/16 04:45:31;;;;;;;1.47;0.90;;;18.00;33.20;;;;;;8391266;28;20089;-57
2021/03/16 04:49:32;;;;;;;1.87;1.40;;;18.10;33.20;;;;;;8391461;28;20142;-57
2021/03/16 04:53:33;;;;;;;1.37;1.20;;;18.10;33.10;;;;;;8393992;28;20127;-57
2021/03/16 04:57:33;;;;;;;1.05;0.80;;;18.10;33.10;;;;;;8391544;28;20068;-57
2021/03/16 05:01:35;;;;;;;2.13;1.00;;;18.20;33.10;;;;;;8410901;28;20074;-56
2021/03/16 05:05:35;;;;;;;1.55;1.00;;;18.20;33.10;;;;;;8412180;28;20024;-57
2021/03/16 05:09:36;;;;;;;1.40;1.20;;;18.20;33.10;;;;;;8392209;28;20582;-56
2021/03/16 05:13:36;;;;;;;1.97;1.20;;;18.30;33.10;;;;;;8394187;28;20045;-57
2021/03/16 05:17:37;;;;;;;3.03;1.10;;;18.30;33.10;;;;;;8389350;28;20410;-57
2021/03/16 05:21:37;;;;;;;1.20;1.00;;;18.30;33.00;;;;;;8391273;28;20555;-57
2021/03/16 05:25:38;;;;;;;1.93;1.17;;;18.40;33.10;;;;;;8390999;28;20105;-57
2021/03/16 05:29:38;;;;;;;1.23;1.13;;;18.40;33.10;;;;;;8393526;28;20066;-57
2021/03/16 05:33:39;;;;;;;1.53;1.17;;;18.40;33.10;;;;;;8390843;28;20489;-57
2021/03/16 05:37:39;;;;;;;1.23;1.00;;;18.40;33.00;;;;;;8390800;28;20036;-57
2021/03/16 05:41:41;;;;;;;1.17;0.90;;;18.40;33.00;;;;;;8389064;28;20127;-57
2021/03/16 05:45:41;;;;;;;1.02;0.90;;;18.50;33.10;;;;;;8395181;28;20035;-57
2021/03/16 05:49:42;;;;;;;2.00;1.60;;;18.40;33.00;;;;;;8390769;28;20036;-58
2021/03/16 05:53:48;;;;;;;1.23;0.98;;;18.50;33.00;;;;;;8388885;28;20098;-58
2021/03/16 05:57:50;;;;;;;1.35;1.00;;;18.50;33.00;;;;;;8395736;28;20033;-57
2021/03/16 06:01:51;;;;;;;0.80;0.80;;;18.60;33.00;;;;;;8395113;28;20174;-56
2021/03/16 06:05:51;;;;;;;1.03;0.90;;;18.60;33.00;;;;;;8401323;28;20366;-58
2021/03/16 06:09:52;;;;;;;1.40;0.80;;;18.60;32.90;;;;;;8396257;28;20037;-57
2021/03/16 06:13:55;;;;;;;1.50;1.10;;;18.60;33.00;;;;;;8394993;28;20099;-57
2021/03/16 06:17:55;;;;;;;2.10;0.90;;;18.60;32.90;;;;;;8396199;28;20090;-57
2021/03/16 06:22:05;;;;;;;1.27;0.93;;;18.60;32.90;;;;;;8400462;28;20024;-58
2021/03/16 06:26:12;;;;;;;1.00;0.98;;;18.60;32.90;;;;;;8394407;28;20028;-57
2021/03/16 06:30:24;;;;;;;1.05;0.85;;;18.60;32.80;;;;;;8395926;28;20039;-59
2021/03/16 06:34:25;;;;;;;1.70;1.08;;;18.70;32.90;;;;;;8395896;28;20048;-57
2021/03/16 06:38:27;;;;;;;;;;;18.70;32.90;;;;;;8394344;28;20119;-56
2021/03/16 06:42:29;;;;;;;1.40;1.10;;;18.70;32.90;;;;;;8400233;28;19908;-57
2021/03/16 06:46:32;;;;;;;1.65;1.00;;;18.70;32.80;;;;;;8395382;28;20041;-57
2021/03/16 06:50:32;;;;;;;1.13;1.02;;;18.70;32.80;;;;;;8393609;28;20487;-57
2021/03/16 06:54:33;;;;;;;1.57;1.00;;;18.70;32.80;;;;;;8394824;28;20087;-57
2021/03/16 06:58:35;;;;;;;1.33;1.20;;;18.70;32.80;;;;;;8399407;28;20439;-57
2021/03/16 07:02:35;;;;;;;1.20;1.00;;;18.80;32.90;;;;;;8393086;28;20055;-58
2021/03/16 07:06:36;;;;;;;1.70;1.13;;;18.80;32.90;;;;;;8395100;28;20029;-58
2021/03/16 07:10:38;;;;;;;1.50;0.88;;;18.80;32.80;;;;;;8405904;28;20024;-57
2021/03/16 07:14:42;;;;;;;2.08;1.35;;;18.80;32.80;;;;;;8423323;28;20520;-57
2021/03/16 07:18:44;;;;;;;1.40;1.20;;;18.80;32.80;;;;;;8399110;28;20486;-57
2021/03/16 07:22:56;;;;;;;1.92;1.10;;;18.80;32.70;;;;;;8392396;28;20033;-55
2021/03/16 07:26:57;;;;;;;1.67;0.98;;;18.80;32.70;;;;;;8393742;28;20090;-57
2021/03/16 07:30:58;;;;;;;;;;;18.90;32.80;;;;;;8394313;28;20040;-57
2021/03/16 07:35:01;;;;;;;1.67;1.05;;;18.90;32.70;;;;;;8396408;28;20457;-57
2021/03/16 07:39:05;;;;;;;1.38;1.00;;;18.90;32.70;;;;;;8425128;28;20119;-57
2021/03/16 07:43:10;;;;;;;1.85;1.15;;;18.90;32.70;;;;;;8403778;28;20393;-57
2021/03/16 07:47:11;;;;;;;1.17;1.08;;;18.90;32.70;;;;;;8391502;28;20127;-57
2021/03/16 07:51:12;;;;;;;2.97;1.17;;;18.90;32.70;;;;;;8393077;28;20044;-57
2021/03/16 07:55:28;;;;;;;;;;;18.90;32.60;;;;;;8397631;28;20078;-57
2021/03/16 07:59:34;;;;;;;0.93;0.88;;;19.00;32.60;;;;;;8391754;28;20360;-57
2021/03/16 08:03:35;;;;;;;1.13;0.93;;;18.90;32.60;;;;;;8392753;28;20033;-57
2021/03/16 08:07:35;;;;;;;1.73;1.00;;;19.00;32.70;;;;;;8393074;28;20057;-57
2021/03/16 08:11:40;;;;;;;2.67;1.20;;;19.00;32.60;;;;;;8392764;28;20025;-57
2021/03/16 08:15:46;;;;;;;2.47;1.13;;;19.00;32.60;;;;;;8363540;28;20053;-57
2021/03/16 08:19:47;;;;;;;1.58;1.20;;;19.00;32.60;;;;;;8381934;28;20037;-57
2021/03/16 08:23:47;;;;;;;1.67;0.90;;;19.00;32.60;;;;;;8391760;28;20033;-57
2021/03/16 08:27:50;;;;;;;1.83;1.10;;;19.10;32.60;;;;;;8392372;28;20040;-57
2021/03/16 08:31:55;;;;;;;1.70;1.40;;;19.10;32.60;;;;;;8394480;28;20063;-57
2021/03/16 08:35:57;;;;;;;1.33;0.80;;;19.10;32.60;;;;;;8391699;28;20051;-57
2021/03/16 08:39:58;;;;;;;1.27;1.00;;;19.10;32.60;;;;;;8391776;28;20032;-57
2021/03/16 08:43:58;;;;;;;2.08;1.20;;;19.10;32.50;;;;;;8389791;28;20039;-57
2021/03/16 08:47:59;;;;;;;2.63;1.40;;;19.10;32.50;;;;;;8393448;28;20561;-57
2021/03/16 08:51:59;;;;;;;0.70;0.70;;;19.10;32.40;;;;;;8393649;28;20120;-58
2021/03/16 08:56:00;;;;;;;1.83;1.10;;;19.20;32.50;;;;;;8389690;28;20056;-57
2021/03/16 09:00:01;;;;;;;1.90;1.27;;;19.10;32.50;;;;;;8391270;28;20097;-57
2021/03/16 09:04:09;;;;;;;1.73;1.23;;;19.20;32.60;;;;;;8390957;28;20048;-57
2021/03/16 09:08:10;;;;;;;2.25;1.20;;;19.20;32.50;;;;;;8393864;28;20097;-57
2021/03/16 09:12:12;;;;;;;1.63;0.90;;;19.20;32.50;;;;;;8391557;28;20036;-57
2021/03/16 09:16:22;;;;;;;2.28;1.30;;;19.20;32.50;;;;;;8390948;28;20064;-57
2021/03/16 09:20:28;;;;;;;1.80;1.00;;;19.20;32.50;;;;;;8389369;28;20127;-57
2021/03/16 09:24:31;;;;;;;1.77;1.02;;;19.20;32.40;;;;;;8391785;28;20385;-57
2021/03/16 09:28:32;;;;;;;3.40;1.10;;;19.20;32.40;;;;;;8395302;28;20032;-57
2021/03/16 09:32:35;;;;;;;1.23;1.10;;;19.20;32.40;;;;;;8420161;28;20333;-57
2021/03/16 09:36:36;;;;;;;1.92;1.05;;;19.20;32.40;;;;;;8416187;28;20485;-57
2021/03/16 09:40:39;;;;;;;1.43;0.97;;;19.30;32.40;;;;;;8397079;28;20119;-57
2021/03/16 09:44:46;;;;;;;1.33;1.05;;;19.30;32.40;;;;;;8400109;28;20062;-57
2021/03/16 09:48:50;;;;;;;1.08;0.98;;;19.30;32.30;;;;;;8397050;28;20041;-56
2021/03/16 09:53:02;;;;;;;2.90;1.10;;;19.30;32.30;;;;;;8395279;28;20423;-56
2021/03/16 09:57:07;;;;;;;1.00;0.90;;;19.30;32.30;;;;;;8396741;28;20029;-56
2021/03/16 10:01:08;;;;;;;1.77;1.15;;;19.30;32.30;;;;;;8396648;28;20037;-56
2021/03/16 10:05:11;;;;;;;1.10;1.00;;;19.30;32.30;;;;;;8397882;28;20083;-56
2021/03/16 10:09:22;;;;;;;1.15;0.95;;;19.40;32.30;;;;;;8422720;28;20153;-56
2021/03/16 10:13:37;;;;;;;1.17;1.00;;;19.40;32.30;;;;;;8412167;28;20102;-56
2021/03/16 10:17:40;;;;;;;1.10;1.00;;;19.40;32.30;;;;;;8394340;28;20028;-56
2021/03/16 10:21:41;;;;;;;1.55;1.10;;;19.40;32.30;;;;;;8397174;28;20462;-57
2021/03/16 10:25:41;;;;;;;2.40;1.10;;;19.40;32.30;;;;;;8367072;28;20042;-56
2021/03/16 10:29:42;;;;;;;2.43;1.40;;;19.50;32.30;;;;;;8385264;28;20115;-57
2021/03/16 10:33:43;;;;;;;1.60;1.17;;;19.50;32.20;;;;;;8395704;28;20051;-56
2021/03/16 10:37:45;;;;;;;1.65;1.15;;;19.50;32.20;;;;;;8393844;28;20428;-54
2021/03/16 10:41:45;;;;;;;1.00;0.90;;;19.50;32.20;;;;;;8399577;28;20028;-57
2021/03/16 10:45:46;;;;;;;1.80;1.20;;;19.50;32.20;;;;;;8395659;28;20539;-56
2021/03/16 10:49:46;;;;;;;1.50;1.10;;;19.50;32.20;;;;;;8393576;28;20037;-56
2021/03/16 10:53:47;;;;;;;2.10;1.03;;;19.60;32.20;;;;;;8395041;28;20056;-56
2021/03/16 10:57:47;;;;;;;1.50;1.00;;;19.60;32.10;;;;;;8399366;28;20078;-57
2021/03/16 11:01:48;;;;;;;1.50;1.00;;;19.60;32.10;;;;;;8424066;28;20028;-57
2021/03/16 11:05:49;;;;;;;3.28;1.05;;;19.60;32.10;;;;;;8428174;28;20036;-56
2021/03/16 11:09:50;;;;;;;1.77;1.27;;;19.60;32.10;;;;;;8416439;28;20502;-57
2021/03/16 11:13:50;;;;;;;1.17;1.00;;;19.60;32.10;;;;;;8392808;28;20273;-57
2021/03/16 11:17:51;;;;;;;2.13;1.00;;;19.70;32.10;;;;;;8398911;28;20044;-56
2021/03/16 11:21:51;;;;;;;2.43;1.10;;;19.70;32.10;;;;;;8394223;28;20036;-57
2021/03/16 11:25:52;;;;;;;1.40;0.90;;;19.70;32.10;;;;;;8392953;28;20478;-57
2021/03/16 11:29:52;;;;;;;1.30;0.97;;;19.70;32.10;;;;;;8398965;28;20035;-57
2021/03/16 11:33:53;;;;;;;2.57;1.47;;;19.70;32.20;;;;;;8431851;28;20040;-57
2021/03/16 11:37:53;;;;;;;1.40;1.00;;;19.70;32.10;;;;;;8396219;28;20037;-58
2021/03/16 11:41:54;;;;;;;1.57;1.37;;;19.70;32.10;;;;;;8393822;28;20033;-57
2021/03/16 11:45:55;;;;;;;1.70;0.90;;;19.80;32.20;;;;;;8393393;28;20481;-57
2021/03/16 11:49:55;;;;;;;1.90;1.37;;;19.70;32.00;;;;;;8396037;28;20464;-58
2021/03/16 11:53:56;;;;;;;2.03;1.20;;;19.80;32.00;;;;;;8392027;28;20053;-57
2021/03/16 11:57:56;;;;;;;2.37;1.23;;;19.80;32.00;;;;;;8415595;28;20036;-58
2021/03/16 12:01:57;;;;;;;1.13;0.90;;;19.80;32.00;;;;;;8411662;28;20052;-57
2021/03/16 12:05:57;;;;;;;1.27;1.17;;;19.80;32.00;;;;;;8392788;28;20051;-58
2021/03/16 12:09:58;;;;;;;1.33;1.00;;;19.90;32.00;;;;;;8397030;28;20032;-58
2021/03/16 12:13:59;;;;;;;2.27;1.20;;;19.90;31.90;;;;;;8390630;28;20048;-57
2021/03/16 12:17:59;;;;;;;1.53;1.20;;;19.90;31.90;;;;;;8392629;28;20502;-57
2021/03/16 12:22:00;;;;;;;1.33;0.83;;;19.90;31.90;;;;;;8392061;28;20375;-57
2021/03/16 12:26:00;;;;;;;1.00;0.90;;;19.90;31.90;;;;;;8395045;28;20041;-57
2021/03/16 12:30:02;;;;;;;1.80;0.90;;;19.90;31.80;;;;;;8392121;28;20119;-58
2021/03/16 12:34:03;;;;;;;1.77;0.90;;;20.00;31.80;;;;;;8391482;28;20060;-57
2021/03/16 12:38:03;;;;;;;1.13;1.00;;;20.00;31.70;;;;;;8390154;28;20493;-57
2021/03/16 12:42:04;;;;;;;1.37;1.00;;;20.00;31.80;;;;;;8392825;28;20029;-57
2021/03/16 12:46:05;;;;;;;1.80;0.80;;;20.00;31.80;;;;;;8394772;28;20082;-56
2021/03/16 12:50:06;;;;;;;2.43;1.07;;;20.00;31.70;;;;;;8390494;28;20049;-57
2021/03/16 12:54:07;;;;;;;1.58;0.98;;;20.00;31.70;;;;;;8391476;28;20049;-57
2021/03/16 12:58:07;;;;;;;1.73;0.90;;;20.00;31.70;;;;;;8391636;28;20029;-57
2021/03/16 13:02:08;;;;;;;1.10;1.00;;;20.00;31.80;;;;;;8394127;28;20453;-58
2021/03/16 13:06:09;;;;;;;2.53;1.00;;;20.10;31.80;;;;;;8391247;28;20075;-57
2021/03/16 13:10:10;;;;;;;1.17;1.00;;;20.10;31.80;;;;;;8391025;28;20048;-57
2021/03/16 13:14:11;;;;;;;0.85;0.80;;;20.10;31.70;;;;;;8389047;28;20045;-57
2021/03/16 13:18:13;;;;;;;0.80;0.80;;;20.10;31.70;;;;;;8395444;28;20055;-57
2021/03/16 13:22:13;;;;;;;0.95;0.88;;;20.10;31.70;;;;;;8390662;28;20485;-57
2021/03/16 13:26:14;;;;;;;2.03;0.70;;;20.10;32.20;;;;;;8389081;28;20036;-58
2021/03/16 13:30:17;;;;;;;1.00;0.80;;;20.10;31.70;;;;;;8391245;28;20382;-58
2021/03/16 13:34:17;;;;;;;0.98;0.88;;;20.10;31.80;;;;;;8390255;28;20386;-58
2021/03/16 13:38:18;;;;;;;2.07;1.10;;;20.00;31.70;;;;;;8393236;28;20036;-58
2021/03/16 13:42:18;;;;;;;1.70;1.07;;;20.00;31.70;;;;;;8390729;28;20033;-58
2021/03/16 13:46:19;;;;;;;0.80;0.77;;;20.10;31.80;;;;;;8390892;28;20497;-58
2021/03/16 13:50:19;;;;;;;1.07;0.80;;;20.10;31.70;;;;;;8393717;28;20036;-58
2021/03/16 13:54:20;;;;;;;0.87;0.80;;;20.10;31.80;;;;;;8427937;28;20076;-58
2021/03/16 13:58:21;;;;;;;1.77;0.90;;;20.10;31.80;;;;;;8394021;28;20057;-57
2021/03/16 14:02:22;;;;;;;0.80;0.70;;;20.10;31.80;;;;;;8388433;28;20255;-58
2021/03/16 14:06:23;;;;;;;1.13;0.93;;;20.10;31.80;;;;;;8390146;28;20078;-58
2021/03/16 14:10:23;;;;;;;1.73;0.90;;;20.10;31.90;;;;;;8394598;28;20036;-58
2021/03/16 14:14:24;;;;;;;2.33;0.90;;;20.10;31.80;;;;;;8388525;28;20075;-56
2021/03/16 14:18:24;;;;;;;1.30;0.70;;;20.10;31.90;;;;;;8394458;28;20067;-56
2021/03/16 14:22:25;;;;;;;1.70;1.00;;;20.10;31.80;;;;;;8394431;28;20047;-58
2021/03/16 14:26:25;;;;;;;1.30;0.77;;;20.10;31.80;;;;;;8394198;28;20037;-57
2021/03/16 14:30:26;;;;;;;1.37;0.80;;;20.10;31.80;;;;;;8399940;28;20038;-57
2021/03/16 14:34:27;;;;;;;0.82;0.82;;;20.10;31.80;;;;;;8395417;28;20432;-57
2021/03/16 14:38:27;;;;;;;1.23;0.90;;;20.10;32.30;;;;;;8393857;28;20032;-58
2021/03/16 14:42:28;;;;;;;1.80;0.90;;;20.10;31.80;;;;;;8396454;28;20048;-58
2021/03/16 14:46:28;;;;;;;1.00;0.87;;;20.10;31.80;;;;;;8399604;28;20025;-58
2021/03/16 14:50:29;;;;;;;1.60;1.00;;;20.10;31.80;;;;;;8393263;28;20032;-58
2021/03/16 14:54:30;;;;;;;1.40;0.90;;;20.20;31.70;;;;;;8394871;28;20182;-58
2021/03/16 14:58:30;;;;;;;0.93;0.87;;;20.10;31.70;;;;;;8394921;28;20554;-58
2021/03/16 15:02:31;;;;;;;0.97;0.90;;;20.10;31.70;;;;;;8394315;28;20020;-58
2021/03/16 15:06:32;;;;;;;1.15;0.80;;;20.10;31.80;;;;;;8398094;28;20040;-57
2021/03/16 15:10:32;;;;;;;0.83;0.50;;;20.10;31.70;;;;;;8394417;28;20043;-58
2021/03/16 15:14:33;;;;;;;1.52;0.70;;;20.10;31.70;;;;;;8392830;28;20032;-58
2021/03/16 15:18:34;;;;;;;1.57;0.70;;;20.10;31.70;;;;;;8394469;28;20056;-58
2021/03/16 15:22:35;;;;;;;2.17;1.20;;;20.20;31.80;;;;;;8398399;28;20028;-58
2021/03/16 15:26:36;;;;;;;2.58;0.90;;;20.20;31.70;;;;;;8391965;28;20035;-59
2021/03/16 15:30:36;;;;;;;1.63;1.00;;;20.20;31.70;;;;;;8394113;28;20036;-59
2021/03/16 15:34:37;;;;;;;1.17;0.80;;;20.20;31.80;;;;;;8394017;28;20410;-58
2021/03/16 15:38:37;;;;;;;1.07;0.97;;;20.20;31.70;;;;;;8396377;28;20390;-59
2021/03/16 15:42:38;;;;;;;1.13;0.70;;;20.20;31.70;;;;;;8393172;28;20907;-58
2021/03/16 15:46:38;;;;;;;1.00;0.80;;;20.20;31.70;;;;;;8393178;28;20116;-59
2021/03/16 15:50:39;;;;;;;2.07;1.17;;;20.10;31.70;;;;;;8391452;28;20108;-58
2021/03/16 15:54:40;;;;;;;0.90;0.90;;;20.20;31.60;;;;;;8392602;28;20393;-58
2021/03/16 15:58:40;;;;;;;1.60;0.90;;;20.20;31.70;;;;;;8397277;28;20124;-59
2021/03/16 16:02:41;;;;;;;0.90;0.80;;;20.20;31.70;;;;;;8391051;28;20043;-58
2021/03/16 16:06:41;;;;;;;1.20;0.90;;;20.20;31.60;;;;;;8392454;28;20041;-58
2021/03/16 16:10:42;;;;;;;1.57;1.00;;;20.20;31.70;;;;;;8392536;28;20535;-58
2021/03/16 16:14:43;;;;;;;1.10;1.00;;;20.10;31.60;;;;;;8394626;28;20072;-58
2021/03/16 16:18:43;;;;;;;0.77;0.63;;;20.20;31.60;;;;;;8393053;28;20132;-59
2021/03/16 16:22:45;;;;;;;1.20;0.80;;;20.20;31.60;;;;;;8390211;28;20042;-57
2021/03/16 16:26:46;;;;;;;1.17;0.90;;;20.20;31.60;;;;;;8392272;28;20098;-58
2021/03/16 16:30:46;;;;;;;1.33;0.90;;;20.20;31.60;;;;;;8396568;28;20021;-58
2021/03/16 16:34:47;;;;;;;1.47;0.90;;;20.20;31.60;;;;;;8390066;28;20489;-58
2021/03/16 16:38:47;;;;;;;1.07;0.70;;;20.20;31.60;;;;;;8413020;28;20123;-58
2021/03/16 16:42:48;;;;;;;0.70;0.70;;;20.10;31.60;;;;;;8424070;28;20050;-58
2021/03/16 16:46:50;;;;;;;1.40;0.90;;;20.10;31.60;;;;;;8420087;28;20036;-58
2021/03/16 16:50:50;;;;;;;1.25;1.00;;;20.10;31.60;;;;;;8395743;28;20078;-58
2021/03/16 16:54:52;;;;;;;1.63;1.00;;;20.10;31.50;;;;;;8391103;28;20048;-58
2021/03/16 16:58:52;;;;;;;;;;;20.00;31.50;;;;;;8390501;28;20111;-58
2021/03/16 17:02:54;;;;;;;1.17;1.07;;;20.00;31.50;;;;;;8386112;28;19916;-57
2021/03/16 17:06:54;;;;;;;0.90;0.80;;;19.90;31.50;;;;;;8393827;28;20116;-58
2021/03/16 17:10:55;;;;;;;1.57;1.27;;;19.90;31.50;;;;;;8389889;28;20036;-59
2021/03/16 17:14:55;;;;;;;1.00;0.80;;;19.90;31.60;;;;;;8410607;28;20184;-58
2021/03/16 17:18:56;;;;;;;0.97;0.97;;;19.80;31.50;;;;;;8406041;28;20105;-57
2021/03/16 17:22:56;;;;;;;1.10;1.00;;;19.80;31.60;;;;;;8357821;28;20517;-59
2021/03/16 17:26:57;;;;;;;1.70;0.80;;;19.80;31.70;;;;;;8393906;28;20036;-59
2021/03/16 17:30:57;;;;;;;0.93;0.87;;;19.70;31.70;;;;;;8388217;28;20032;-58
2021/03/16 17:34:58;;;;;;;1.47;0.80;;;19.70;31.70;;;;;;8388669;28;20127;-58
2021/03/16 17:39:02;;;;;;;1.07;0.80;;;19.60;31.70;;;;;;8388044;28;20036;-58
2021/03/16 17:43:03;;;;;;;1.25;0.90;;;19.60;31.80;;;;;;8386765;28;20033;-55
2021/03/16 17:47:05;;;;;;;1.17;0.90;;;19.50;31.80;;;;;;8385889;28;20520;-57
2021/03/16 17:51:06;;;;;;;1.33;0.93;;;19.50;31.80;;;;;;8388434;28;20036;-57
2021/03/16 17:55:07;;;;;;;1.30;0.90;;;19.50;31.90;;;;;;8393131;28;20393;-58
2021/03/16 17:59:08;;;;;;;2.03;1.00;;;19.40;31.90;;;;;;8388429;27;20087;-58
2021/03/16 18:03:08;;;;;;;1.30;0.93;;;19.40;31.90;;;;;;8392394;28;20036;-57
2021/03/16 18:07:08;;;;;;;0.90;0.90;;;19.40;32.00;;;;;;8393494;28;20452;-57
2021/03/16 18:11:09;;;;;;;0.70;0.70;;;19.40;32.00;;;;;;8383255;27;20029;-57
2021/03/16 18:15:10;;;;;;;1.97;1.00;;;19.30;32.00;;;;;;8393438;28;20524;-57
2021/03/16 18:19:11;;;;;;;1.50;1.17;;;19.30;32.00;;;;;;8396329;28;20025;-56
2021/03/16 18:23:12;;;;;;;1.33;1.03;;;19.30;32.00;;;;;;8390672;28;20037;-57
2021/03/16 18:27:13;;;;;;;0.93;0.90;;;19.20;31.90;;;;;;8395515;28;20039;-57
2021/03/16 18:31:13;;;;;;;1.00;0.90;;;19.20;32.00;;;;;;8395749;28;20028;-57
2021/03/16 18:35:14;;;;;;;3.10;1.20;;;19.10;32.00;;;;;;8397627;28;20032;-57
2021/03/16 18:39:14;;;;;;;1.57;1.10;;;19.10;32.00;;;;;;8396185;28;20037;-57
2021/03/16 18:43:15;;;;;;;1.60;1.03;;;19.10;32.00;;;;;;8395508;28;20025;-57
2021/03/16 18:47:16;;;;;;;1.23;0.90;;;19.00;32.00;;;;;;8393481;28;20478;-57
2021/03/16 18:51:16;;;;;;;1.30;1.17;;;19.00;32.10;;;;;;8399563;28;20037;-57
2021/03/16 18:55:17;;;;;;;1.10;1.00;;;19.00;32.10;;;;;;8397132;28;20049;-57
2021/03/16 18:59:17;;;;;;;2.03;1.10;;;18.90;32.10;;;;;;8393038;28;20023;-57
2021/03/16 19:03:18;;;;;;;1.27;1.00;;;18.90;32.10;;;;;;8394291;28;20044;-57
2021/03/16 19:07:18;;;;;;;2.90;1.40;;;18.90;32.20;;;;;;8394780;28;20029;-57
2021/03/16 19:11:19;;;;;;;1.40;1.10;;;18.90;32.20;;;;;;8397402;28;20476;-57
2021/03/16 19:15:20;;;;;;;1.77;1.27;;;18.80;32.20;;;;;;8394535;28;20052;-57
2021/03/16 19:19:20;;;;;;;1.40;1.13;;;18.70;32.20;;;;;;8394311;28;20440;-57
2021/03/16 19:23:21;;;;;;;1.20;0.90;;;18.70;32.20;;;;;;8392729;28;20043;-57
2021/03/16 19:27:21;;;;;;;1.20;0.90;;;18.80;32.30;;;;;;8398467;28;20363;-57
2021/03/16 19:31:22;;;;;;;2.27;1.10;;;18.70;32.80;;;;;;8394127;28;20541;-57
2021/03/16 19:35:23;;;;;;;3.13;1.10;;;18.70;32.30;;;;;;8392434;28;20405;-56
2021/03/16 19:39:23;;;;;;;1.53;1.10;;;18.70;32.30;;;;;;8403963;28;20124;-57
2021/03/16 19:43:24;;;;;;;1.00;0.87;;;18.60;32.30;;;;;;8426189;28;20484;-57
2021/03/16 19:47:24;;;;;;;1.13;0.93;;;18.60;32.30;;;;;;8396108;28;20029;-57
2021/03/16 19:51:26;;;;;;;0.83;0.77;;;18.60;32.30;;;;;;8393925;28;20040;-57
2021/03/16 19:55:26;;;;;;;1.88;0.90;;;18.60;32.40;;;;;;8393114;28;20036;-57
2021/03/16 19:59:27;;;;;;;1.70;0.97;;;18.60;32.40;;;;;;8391247;28;20455;-57
2021/03/16 20:03:28;;;;;;;1.02;0.80;;;18.60;32.30;;;;;;8397491;28;20052;-56
2021/03/16 20:07:28;;;;;;;1.43;1.10;;;18.60;32.20;;;;;;8419731;28;20028;-57
2021/03/16 20:11:29;;;;;;;1.10;0.77;;;18.60;32.20;;;;;;8406916;28;20094;-57
2021/03/16 20:15:30;;;;;;;1.33;1.00;;;18.60;32.30;;;;;;8391546;28;20094;-57
2021/03/16 20:19:30;;;;;;;0.90;0.90;;;18.60;32.20;;;;;;8396986;28;20028;-57
2021/03/16 20:23:31;;;;;;;0.80;0.80;;;18.60;32.20;;;;;;8390712;28;20040;-57
2021/03/16 20:27:32;;;;;;;1.63;1.10;;;18.60;32.10;;;;;;8392565;28;20125;-57
2021/03/16 20:31:33;;;;;;;1.27;0.90;;;18.60;32.10;;;;;;8391925;28;20071;-57
2021/03/16 20:35:34;;;;;;;0.97;0.83;;;18.60;32.20;;;;;;8390350;28;20375;-57
2021/03/16 20:39:35;;;;;;;2.08;0.95;;;18.60;32.10;;;;;;8396415;28;20051;-57
2021/03/16 20:43:35;;;;;;;2.07;0.97;;;18.60;32.10;;;;;;8416315;28;20507;-57
2021/03/16 20:47:36;;;;;;;1.00;0.90;;;18.60;32.10;;;;;;8407498;28;20082;-57
2021/03/16 20:51:37;;;;;;;1.37;0.90;;;18.60;32.10;;;;;;8391466;28;20025;-57
2021/03/16 20:55:38;;;;;;;1.10;0.97;;;18.60;32.10;;;;;;8395986;28;20037;-57
2021/03/16 20:59:39;;;;;;;0.95;0.75;;;18.60;32.10;;;;;;8389634;28;20039;-57